sensor_id;sensor_type;location;lat;lon;timestamp;temperature;humidity
11043;DHT22;5574;48.786;10.120;2023-01-30T00:01:14;-2.10;99.90
11043;DHT22;5574;48.786;10.120;2023-01-30T00:03:41;-2.10;99.90
11043;DHT22;5574;48.786;10.120;2023-01-30T00:06:10;-2.10;99.90
11043;DHT22;5574;48.786;10.120;2023-01-30T00:08:37;-2.10;99.90
11043;DHT22;5574;48.786;10.120;2023-01-30T00:11:04;-2.20;99.90
11043;DHT22;5574;48.786;10.120;2023-01-30T00:13:32;-2.20;99.90
11043;DHT22;5574;48.786;10.120;2023-01-30T00:15:59;-2.20;99.90
11043;DHT22;5574;48.786;10.120;2023-01-30T00:18:26;-2.20;99.90
11043;DHT22;5574;48.786;10.120;2023-01-30T00:20:54;-2.20;99.90
11043;DHT22;5574;48.786;10.120;2023-01-30T00:23:23;-2.20;99.90
11043;DHT22;5574;48.786;10.120;2023-01-30T00:25:50;-2.20;99.90
11043;DHT22;5574;48.786;10.120;2023-01-30T00:28:17;-2.20;99.90
11043;DHT22;5574;48.786;10.120;2023-01-30T00:30:43;-2.20;99.90
11043;DHT22;5574;48.786;10.120;2023-01-30T00:33:10;-2.20;99.90
11043;DHT22;5574;48.786;10.120;2023-01-30T00:35:37;-2.20;99.90
11043;DHT22;5574;48.786;10.120;2023-01-30T00:38:08;-2.20;99.90
11043;DHT22;5574;48.786;10.120;2023-01-30T00:40:36;-2.20;99.90
11043;DHT22;5574;48.786;10.120;2023-01-30T00:43:03;-2.20;99.90
11043;DHT22;5574;48.786;10.120;2023-01-30T00:45:48;-2.20;99.90
11043;DHT22;5574;48.786;10.120;2023-01-30T00:48:33;-2.30;99.90
11043;DHT22;5574;48.786;10.120;2023-01-30T00:51:00;-2.30;99.90
11043;DHT22;5574;48.786;10.120;2023-01-30T00:53:27;-2.30;99.90
11043;DHT22;5574;48.786;10.120;2023-01-30T00:55:55;-2.30;99.90
11043;DHT22;5574;48.786;10.120;2023-01-30T00:58:22;-2.30;99.90
11043;DHT22;5574;48.786;10.120;2023-01-30T01:00:49;-2.30;99.90
11043;DHT22;5574;48.786;10.120;2023-01-30T01:03:17;-2.30;99.90
11043;DHT22;5574;48.786;10.120;2023-01-30T01:05:44;-2.30;99.90
11043;DHT22;5574;48.786;10.120;2023-01-30T01:08:11;-2.30;99.90
11043;DHT22;5574;48.786;10.120;2023-01-30T01:10:37;-2.30;99.90
11043;DHT22;5574;48.786;10.120;2023-01-30T01:13:06;-2.30;99.90
11043;DHT22;5574;48.786;10.120;2023-01-30T01:15:32;-2.50;99.90
11043;DHT22;5574;48.786;10.120;2023-01-30T01:17:59;-2.50;99.90
11043;DHT22;5574;48.786;10.120;2023-01-30T01:20:26;-2.60;99.90
11043;DHT22;5574;48.786;10.120;2023-01-30T01:22:54;-2.60;99.90
11043;DHT22;5574;48.786;10.120;2023-01-30T01:25:21;-2.60;99.90
11043;DHT22;5574;48.786;10.120;2023-01-30T01:27:48;-2.60;99.90
11043;DHT22;5574;48.786;10.120;2023-01-30T01:30:17;-2.60;99.90
11043;DHT22;5574;48.786;10.120;2023-01-30T01:32:44;-2.60;99.90
11043;DHT22;5574;48.786;10.120;2023-01-30T01:35:11;-2.60;99.90
11043;DHT22;5574;48.786;10.120;2023-01-30T01:37:37;-2.50;99.90
11043;DHT22;5574;48.786;10.120;2023-01-30T01:40:05;-2.60;99.90
11043;DHT22;5574;48.786;10.120;2023-01-30T01:42:50;-2.60;99.90
11043;DHT22;5574;48.786;10.120;2023-01-30T01:45:19;-2.60;99.90
11043;DHT22;5574;48.786;10.120;2023-01-30T01:47:56;-2.80;99.90
11043;DHT22;5574;48.786;10.120;2023-01-30T01:50:27;-2.90;99.90
11043;DHT22;5574;48.786;10.120;2023-01-30T01:52:55;-3.00;99.90
11043;DHT22;5574;48.786;10.120;2023-01-30T01:55:24;-3.00;99.90
11043;DHT22;5574;48.786;10.120;2023-01-30T01:57:54;-3.00;99.90
11043;DHT22;5574;48.786;10.120;2023-01-30T02:00:23;-3.00;99.90
11043;DHT22;5574;48.786;10.120;2023-01-30T02:02:53;-3.00;99.90
11043;DHT22;5574;48.786;10.120;2023-01-30T02:05:22;-3.10;99.90
11043;DHT22;5574;48.786;10.120;2023-01-30T02:07:51;-3.00;99.90
11043;DHT22;5574;48.786;10.120;2023-01-30T02:10:24;-2.70;99.90
11043;DHT22;5574;48.786;10.120;2023-01-30T02:12:53;-2.40;99.90
11043;DHT22;5574;48.786;10.120;2023-01-30T02:15:20;-2.30;99.90
11043;DHT22;5574;48.786;10.120;2023-01-30T02:17:48;-2.10;99.90
11043;DHT22;5574;48.786;10.120;2023-01-30T02:20:22;-2.00;99.90
11043;DHT22;5574;48.786;10.120;2023-01-30T02:23:16;-1.80;99.90
11043;DHT22;5574;48.786;10.120;2023-01-30T02:26:12;-1.70;99.90
11043;DHT22;5574;48.786;10.120;2023-01-30T02:29:09;-1.50;99.90
11043;DHT22;5574;48.786;10.120;2023-01-30T02:31:48;-1.40;99.90
11043;DHT22;5574;48.786;10.120;2023-01-30T02:34:29;-1.30;99.90
11043;DHT22;5574;48.786;10.120;2023-01-30T02:37:08;-1.20;99.90
11043;DHT22;5574;48.786;10.120;2023-01-30T02:39:47;-1.10;99.90
11043;DHT22;5574;48.786;10.120;2023-01-30T02:42:22;-1.10;99.90
11043;DHT22;5574;48.786;10.120;2023-01-30T02:44:56;-1.00;99.90
11043;DHT22;5574;48.786;10.120;2023-01-30T02:47:29;-1.00;99.90
11043;DHT22;5574;48.786;10.120;2023-01-30T02:50:01;-0.90;99.90
11043;DHT22;5574;48.786;10.120;2023-01-30T02:52:30;-0.80;99.90
11043;DHT22;5574;48.786;10.120;2023-01-30T02:54:56;-0.80;99.90
11043;DHT22;5574;48.786;10.120;2023-01-30T02:57:24;-0.80;99.90
11043;DHT22;5574;48.786;10.120;2023-01-30T02:59:54;-0.80;99.90
11043;DHT22;5574;48.786;10.120;2023-01-30T03:02:42;-0.70;99.90
11043;DHT22;5574;48.786;10.120;2023-01-30T03:08:29;-0.70;99.90
11043;DHT22;5574;48.786;10.120;2023-01-30T03:10:59;-0.70;99.90
11043;DHT22;5574;48.786;10.120;2023-01-30T03:13:37;-0.60;99.90
11043;DHT22;5574;48.786;10.120;2023-01-30T03:16:10;-0.60;99.90
11043;DHT22;5574;48.786;10.120;2023-01-30T03:18:41;-0.60;99.90
11043;DHT22;5574;48.786;10.120;2023-01-30T03:21:08;-0.60;99.90
11043;DHT22;5574;48.786;10.120;2023-01-30T03:23:35;-0.60;99.90
11043;DHT22;5574;48.786;10.120;2023-01-30T03:26:03;-0.60;99.90
11043;DHT22;5574;48.786;10.120;2023-01-30T03:28:30;-0.50;99.90
11043;DHT22;5574;48.786;10.120;2023-01-30T03:30:57;-0.50;99.90
11043;DHT22;5574;48.786;10.120;2023-01-30T03:33:24;-0.50;99.90
11043;DHT22;5574;48.786;10.120;2023-01-30T03:35:52;-0.50;99.90
11043;DHT22;5574;48.786;10.120;2023-01-30T03:38:19;-0.50;99.90
11043;DHT22;5574;48.786;10.120;2023-01-30T03:40:46;-0.50;99.90
11043;DHT22;5574;48.786;10.120;2023-01-30T03:43:12;-0.50;99.90
11043;DHT22;5574;48.786;10.120;2023-01-30T03:45:39;-0.50;99.90
11043;DHT22;5574;48.786;10.120;2023-01-30T03:48:06;-0.50;99.90
11043;DHT22;5574;48.786;10.120;2023-01-30T03:50:32;-0.50;99.90
11043;DHT22;5574;48.786;10.120;2023-01-30T03:53:00;-0.40;99.90
11043;DHT22;5574;48.786;10.120;2023-01-30T03:55:27;-0.40;99.90
11043;DHT22;5574;48.786;10.120;2023-01-30T03:57:55;-0.40;99.90
11043;DHT22;5574;48.786;10.120;2023-01-30T04:00:22;-0.40;99.90
11043;DHT22;5574;48.786;10.120;2023-01-30T04:02:49;-0.40;99.90
11043;DHT22;5574;48.786;10.120;2023-01-30T04:05:16;-0.30;99.90
11043;DHT22;5574;48.786;10.120;2023-01-30T04:07:43;-0.30;99.90
11043;DHT22;5574;48.786;10.120;2023-01-30T04:10:11;-0.30;99.90
11043;DHT22;5574;48.786;10.120;2023-01-30T04:12:40;-0.30;99.90
11043;DHT22;5574;48.786;10.120;2023-01-30T04:15:07;-0.30;99.90
11043;DHT22;5574;48.786;10.120;2023-01-30T04:17:34;-0.30;99.90
11043;DHT22;5574;48.786;10.120;2023-01-30T04:20:01;-0.30;99.90
11043;DHT22;5574;48.786;10.120;2023-01-30T04:22:28;-0.30;99.90
11043;DHT22;5574;48.786;10.120;2023-01-30T04:24:54;-0.30;99.90
11043;DHT22;5574;48.786;10.120;2023-01-30T04:27:22;-0.20;99.90
11043;DHT22;5574;48.786;10.120;2023-01-30T04:29:49;-0.20;99.90
11043;DHT22;5574;48.786;10.120;2023-01-30T04:32:16;-0.20;99.90
11043;DHT22;5574;48.786;10.120;2023-01-30T04:34:42;-0.30;99.90
11043;DHT22;5574;48.786;10.120;2023-01-30T04:37:09;-0.30;99.90
11043;DHT22;5574;48.786;10.120;2023-01-30T04:39:36;-0.30;99.90
11043;DHT22;5574;48.786;10.120;2023-01-30T04:42:03;-0.30;99.90
11043;DHT22;5574;48.786;10.120;2023-01-30T04:44:31;-0.30;99.90
11043;DHT22;5574;48.786;10.120;2023-01-30T04:46:58;-0.30;99.90
11043;DHT22;5574;48.786;10.120;2023-01-30T04:49:25;-0.30;99.90
11043;DHT22;5574;48.786;10.120;2023-01-30T04:51:51;-0.20;99.90
11043;DHT22;5574;48.786;10.120;2023-01-30T04:54:18;-0.20;99.90
11043;DHT22;5574;48.786;10.120;2023-01-30T04:56:45;-0.20;99.90
11043;DHT22;5574;48.786;10.120;2023-01-30T04:59:11;-0.20;99.90
11043;DHT22;5574;48.786;10.120;2023-01-30T05:01:40;-0.20;99.90
11043;DHT22;5574;48.786;10.120;2023-01-30T05:04:06;-0.20;99.90
11043;DHT22;5574;48.786;10.120;2023-01-30T05:06:34;-0.20;99.90
11043;DHT22;5574;48.786;10.120;2023-01-30T05:09:02;-0.20;99.90
11043;DHT22;5574;48.786;10.120;2023-01-30T05:11:29;-0.10;99.90
11043;DHT22;5574;48.786;10.120;2023-01-30T05:13:57;-0.10;99.90
11043;DHT22;5574;48.786;10.120;2023-01-30T05:16:24;-0.10;99.90
11043;DHT22;5574;48.786;10.120;2023-01-30T05:18:52;-0.10;99.90
11043;DHT22;5574;48.786;10.120;2023-01-30T05:21:21;0.00;99.90
11043;DHT22;5574;48.786;10.120;2023-01-30T05:23:50;0.00;99.90
11043;DHT22;5574;48.786;10.120;2023-01-30T05:26:17;0.00;99.90
11043;DHT22;5574;48.786;10.120;2023-01-30T05:28:49;0.10;99.90
11043;DHT22;5574;48.786;10.120;2023-01-30T05:31:16;0.10;99.90
11043;DHT22;5574;48.786;10.120;2023-01-30T05:33:45;0.10;99.90
11043;DHT22;5574;48.786;10.120;2023-01-30T05:36:16;0.20;99.90
11043;DHT22;5574;48.786;10.120;2023-01-30T05:38:43;0.20;99.90
11043;DHT22;5574;48.786;10.120;2023-01-30T05:41:11;0.20;99.90
11043;DHT22;5574;48.786;10.120;2023-01-30T05:43:38;0.20;99.90
11043;DHT22;5574;48.786;10.120;2023-01-30T05:46:06;0.20;99.90
11043;DHT22;5574;48.786;10.120;2023-01-30T05:48:33;0.20;99.90
11043;DHT22;5574;48.786;10.120;2023-01-30T05:51:01;0.20;99.90
11043;DHT22;5574;48.786;10.120;2023-01-30T05:53:30;0.20;99.90
11043;DHT22;5574;48.786;10.120;2023-01-30T05:56:00;0.20;99.90
11043;DHT22;5574;48.786;10.120;2023-01-30T05:58:28;0.20;99.90
11043;DHT22;5574;48.786;10.120;2023-01-30T06:00:59;0.20;99.90
11043;DHT22;5574;48.786;10.120;2023-01-30T06:03:25;0.20;99.90
11043;DHT22;5574;48.786;10.120;2023-01-30T06:05:52;0.20;99.90
11043;DHT22;5574;48.786;10.120;2023-01-30T06:08:19;0.20;99.90
11043;DHT22;5574;48.786;10.120;2023-01-30T06:10:47;0.20;99.90
11043;DHT22;5574;48.786;10.120;2023-01-30T06:13:13;0.10;99.90
11043;DHT22;5574;48.786;10.120;2023-01-30T06:15:40;0.10;99.90
11043;DHT22;5574;48.786;10.120;2023-01-30T06:18:07;0.10;99.90
11043;DHT22;5574;48.786;10.120;2023-01-30T06:20:33;0.10;99.90
11043;DHT22;5574;48.786;10.120;2023-01-30T06:23:00;0.10;99.90
11043;DHT22;5574;48.786;10.120;2023-01-30T06:25:27;0.10;99.90
11043;DHT22;5574;48.786;10.120;2023-01-30T06:27:55;0.10;99.90
11043;DHT22;5574;48.786;10.120;2023-01-30T06:30:21;0.10;99.90
11043;DHT22;5574;48.786;10.120;2023-01-30T06:32:49;0.10;99.90
11043;DHT22;5574;48.786;10.120;2023-01-30T06:35:16;0.20;99.90
11043;DHT22;5574;48.786;10.120;2023-01-30T06:37:43;0.20;99.90
11043;DHT22;5574;48.786;10.120;2023-01-30T06:40:11;0.20;99.90
11043;DHT22;5574;48.786;10.120;2023-01-30T06:42:38;0.20;99.90
11043;DHT22;5574;48.786;10.120;2023-01-30T06:45:07;0.30;99.90
11043;DHT22;5574;48.786;10.120;2023-01-30T06:47:34;0.30;99.90
11043;DHT22;5574;48.786;10.120;2023-01-30T06:50:09;0.40;99.90
11043;DHT22;5574;48.786;10.120;2023-01-30T06:52:39;0.40;99.90
11043;DHT22;5574;48.786;10.120;2023-01-30T06:55:07;0.40;99.90
11043;DHT22;5574;48.786;10.120;2023-01-30T06:57:34;0.50;99.90
11043;DHT22;5574;48.786;10.120;2023-01-30T07:00:01;0.50;99.90
11043;DHT22;5574;48.786;10.120;2023-01-30T07:02:29;0.50;99.90
11043;DHT22;5574;48.786;10.120;2023-01-30T07:04:59;0.50;99.90
11043;DHT22;5574;48.786;10.120;2023-01-30T07:07:26;0.60;99.90
11043;DHT22;5574;48.786;10.120;2023-01-30T07:09:53;0.60;99.90
11043;DHT22;5574;48.786;10.120;2023-01-30T07:12:19;0.60;99.90
11043;DHT22;5574;48.786;10.120;2023-01-30T07:14:46;0.60;99.90
11043;DHT22;5574;48.786;10.120;2023-01-30T07:17:13;0.70;99.90
11043;DHT22;5574;48.786;10.120;2023-01-30T07:19:41;0.70;99.90
11043;DHT22;5574;48.786;10.120;2023-01-30T07:22:08;0.70;99.90
11043;DHT22;5574;48.786;10.120;2023-01-30T07:24:35;0.70;99.90
11043;DHT22;5574;48.786;10.120;2023-01-30T07:27:01;0.80;99.90
11043;DHT22;5574;48.786;10.120;2023-01-30T07:29:28;0.80;99.90
11043;DHT22;5574;48.786;10.120;2023-01-30T07:31:55;0.80;99.90
11043;DHT22;5574;48.786;10.120;2023-01-30T07:34:22;0.80;99.90
11043;DHT22;5574;48.786;10.120;2023-01-30T07:36:50;0.90;99.90
11043;DHT22;5574;48.786;10.120;2023-01-30T07:39:16;0.90;99.90
11043;DHT22;5574;48.786;10.120;2023-01-30T07:41:43;0.90;99.90
11043;DHT22;5574;48.786;10.120;2023-01-30T07:44:11;0.90;99.90
11043;DHT22;5574;48.786;10.120;2023-01-30T07:46:38;0.90;99.90
11043;DHT22;5574;48.786;10.120;2023-01-30T07:49:06;0.90;99.90
11043;DHT22;5574;48.786;10.120;2023-01-30T07:51:33;0.90;99.90
11043;DHT22;5574;48.786;10.120;2023-01-30T07:54:01;0.90;99.90
11043;DHT22;5574;48.786;10.120;2023-01-30T07:56:28;0.90;99.90
11043;DHT22;5574;48.786;10.120;2023-01-30T07:58:55;0.90;99.90
11043;DHT22;5574;48.786;10.120;2023-01-30T08:01:22;0.90;99.90
11043;DHT22;5574;48.786;10.120;2023-01-30T08:03:49;1.00;99.90
11043;DHT22;5574;48.786;10.120;2023-01-30T08:06:16;1.00;99.90
11043;DHT22;5574;48.786;10.120;2023-01-30T08:08:43;1.00;99.90
11043;DHT22;5574;48.786;10.120;2023-01-30T08:11:11;1.00;99.90
11043;DHT22;5574;48.786;10.120;2023-01-30T08:13:38;1.00;99.90
11043;DHT22;5574;48.786;10.120;2023-01-30T08:16:06;1.10;99.90
11043;DHT22;5574;48.786;10.120;2023-01-30T08:18:33;1.10;99.90
11043;DHT22;5574;48.786;10.120;2023-01-30T08:21:02;1.10;99.90
11043;DHT22;5574;48.786;10.120;2023-01-30T08:23:29;1.10;99.90
11043;DHT22;5574;48.786;10.120;2023-01-30T08:25:56;1.10;99.90
11043;DHT22;5574;48.786;10.120;2023-01-30T08:28:25;1.20;99.90
11043;DHT22;5574;48.786;10.120;2023-01-30T08:30:52;1.20;99.90
11043;DHT22;5574;48.786;10.120;2023-01-30T08:33:19;1.20;99.90
11043;DHT22;5574;48.786;10.120;2023-01-30T08:35:47;1.20;99.90
11043;DHT22;5574;48.786;10.120;2023-01-30T08:38:14;1.20;99.90
11043;DHT22;5574;48.786;10.120;2023-01-30T08:40:41;1.30;99.90
11043;DHT22;5574;48.786;10.120;2023-01-30T08:43:09;1.30;99.90
11043;DHT22;5574;48.786;10.120;2023-01-30T08:45:37;1.40;99.90
11043;DHT22;5574;48.786;10.120;2023-01-30T08:48:05;1.40;99.90
11043;DHT22;5574;48.786;10.120;2023-01-30T08:50:32;1.40;99.90
11043;DHT22;5574;48.786;10.120;2023-01-30T08:53:03;1.30;99.90
11043;DHT22;5574;48.786;10.120;2023-01-30T08:55:30;1.30;99.90
11043;DHT22;5574;48.786;10.120;2023-01-30T08:57:57;1.30;99.90
11043;DHT22;5574;48.786;10.120;2023-01-30T09:00:25;1.40;99.90
11043;DHT22;5574;48.786;10.120;2023-01-30T09:02:54;1.30;99.90
11043;DHT22;5574;48.786;10.120;2023-01-30T09:05:21;1.30;99.90
11043;DHT22;5574;48.786;10.120;2023-01-30T09:07:48;1.20;99.90
11043;DHT22;5574;48.786;10.120;2023-01-30T09:10:16;1.30;99.90
11043;DHT22;5574;48.786;10.120;2023-01-30T09:12:43;1.40;99.90
11043;DHT22;5574;48.786;10.120;2023-01-30T09:15:11;1.50;99.90
11043;DHT22;5574;48.786;10.120;2023-01-30T09:17:37;1.70;99.90
11043;DHT22;5574;48.786;10.120;2023-01-30T09:20:06;1.80;99.90
11043;DHT22;5574;48.786;10.120;2023-01-30T09:22:34;2.00;99.90
11043;DHT22;5574;48.786;10.120;2023-01-30T09:25:00;2.00;99.90
11043;DHT22;5574;48.786;10.120;2023-01-30T09:27:27;1.90;99.90
11043;DHT22;5574;48.786;10.120;2023-01-30T09:29:54;1.80;99.90
11043;DHT22;5574;48.786;10.120;2023-01-30T09:32:22;1.90;99.90
11043;DHT22;5574;48.786;10.120;2023-01-30T09:34:49;2.00;99.90
11043;DHT22;5574;48.786;10.120;2023-01-30T09:37:17;1.90;99.90
11043;DHT22;5574;48.786;10.120;2023-01-30T09:39:43;1.90;99.90
11043;DHT22;5574;48.786;10.120;2023-01-30T09:42:33;1.80;99.90
11043;DHT22;5574;48.786;10.120;2023-01-30T09:45:26;1.80;99.90
11043;DHT22;5574;48.786;10.120;2023-01-30T09:48:00;1.70;99.90
11043;DHT22;5574;48.786;10.120;2023-01-30T09:50:45;1.70;99.90
11043;DHT22;5574;48.786;10.120;2023-01-30T09:53:19;1.70;99.90
11043;DHT22;5574;48.786;10.120;2023-01-30T09:55:51;1.70;99.90
11043;DHT22;5574;48.786;10.120;2023-01-30T09:58:19;1.70;99.90
11043;DHT22;5574;48.786;10.120;2023-01-30T10:00:47;1.70;99.90
11043;DHT22;5574;48.786;10.120;2023-01-30T10:03:17;1.80;99.90
11043;DHT22;5574;48.786;10.120;2023-01-30T10:05:48;1.80;99.90
11043;DHT22;5574;48.786;10.120;2023-01-30T10:08:36;1.80;99.90
11043;DHT22;5574;48.786;10.120;2023-01-30T10:11:15;1.90;99.90
11043;DHT22;5574;48.786;10.120;2023-01-30T10:13:59;2.00;99.90
11043;DHT22;5574;48.786;10.120;2023-01-30T10:16:36;2.00;99.90
11043;DHT22;5574;48.786;10.120;2023-01-30T10:19:22;2.00;99.90
11043;DHT22;5574;48.786;10.120;2023-01-30T10:22:01;2.10;99.90
11043;DHT22;5574;48.786;10.120;2023-01-30T10:24:40;2.20;99.90
11043;DHT22;5574;48.786;10.120;2023-01-30T10:27:11;2.20;99.90
11043;DHT22;5574;48.786;10.120;2023-01-30T10:29:40;2.20;99.90
11043;DHT22;5574;48.786;10.120;2023-01-30T10:32:13;2.20;99.90
11043;DHT22;5574;48.786;10.120;2023-01-30T10:34:43;2.20;99.90
11043;DHT22;5574;48.786;10.120;2023-01-30T10:37:14;2.20;99.90
11043;DHT22;5574;48.786;10.120;2023-01-30T10:39:50;2.20;99.90
11043;DHT22;5574;48.786;10.120;2023-01-30T10:42:24;2.30;99.90
11043;DHT22;5574;48.786;10.120;2023-01-30T10:44:54;2.20;99.90
11043;DHT22;5574;48.786;10.120;2023-01-30T10:47:36;2.20;99.90
11043;DHT22;5574;48.786;10.120;2023-01-30T10:50:13;2.20;99.90
11043;DHT22;5574;48.786;10.120;2023-01-30T10:52:45;2.20;99.90
11043;DHT22;5574;48.786;10.120;2023-01-30T10:55:24;2.20;99.90
11043;DHT22;5574;48.786;10.120;2023-01-30T10:57:57;2.10;99.90
11043;DHT22;5574;48.786;10.120;2023-01-30T11:00:28;2.20;99.90
11043;DHT22;5574;48.786;10.120;2023-01-30T11:03:09;2.20;99.90
11043;DHT22;5574;48.786;10.120;2023-01-30T11:05:44;2.20;99.90
11043;DHT22;5574;48.786;10.120;2023-01-30T11:08:22;2.30;99.90
11043;DHT22;5574;48.786;10.120;2023-01-30T11:10:50;2.30;99.90
11043;DHT22;5574;48.786;10.120;2023-01-30T11:13:19;2.40;99.90
11043;DHT22;5574;48.786;10.120;2023-01-30T11:15:49;2.40;99.90
11043;DHT22;5574;48.786;10.120;2023-01-30T11:18:18;2.40;99.90
11043;DHT22;5574;48.786;10.120;2023-01-30T11:21:01;2.40;99.90
11043;DHT22;5574;48.786;10.120;2023-01-30T11:23:33;2.40;99.90
11043;DHT22;5574;48.786;10.120;2023-01-30T11:26:03;2.40;99.90
11043;DHT22;5574;48.786;10.120;2023-01-30T11:28:35;2.40;99.90
11043;DHT22;5574;48.786;10.120;2023-01-30T11:31:05;2.50;99.90
11043;DHT22;5574;48.786;10.120;2023-01-30T11:33:40;2.40;99.90
11043;DHT22;5574;48.786;10.120;2023-01-30T11:36:23;2.50;99.90
11043;DHT22;5574;48.786;10.120;2023-01-30T11:38:55;2.50;99.90
11043;DHT22;5574;48.786;10.120;2023-01-30T11:41:24;2.50;99.90
11043;DHT22;5574;48.786;10.120;2023-01-30T11:43:58;2.60;99.90
11043;DHT22;5574;48.786;10.120;2023-01-30T11:46:29;2.60;99.90
11043;DHT22;5574;48.786;10.120;2023-01-30T11:48:58;2.70;99.90
11043;DHT22;5574;48.786;10.120;2023-01-30T11:51:26;2.70;99.90
11043;DHT22;5574;48.786;10.120;2023-01-30T11:53:56;2.80;99.90
11043;DHT22;5574;48.786;10.120;2023-01-30T11:56:31;2.80;99.90
11043;DHT22;5574;48.786;10.120;2023-01-30T11:59:00;2.80;99.90
11043;DHT22;5574;48.786;10.120;2023-01-30T12:01:30;2.80;99.90
11043;DHT22;5574;48.786;10.120;2023-01-30T12:03:57;2.80;99.90
11043;DHT22;5574;48.786;10.120;2023-01-30T12:06:29;2.80;99.90
11043;DHT22;5574;48.786;10.120;2023-01-30T12:08:56;2.90;99.90
11043;DHT22;5574;48.786;10.120;2023-01-30T12:11:43;2.90;99.90
11043;DHT22;5574;48.786;10.120;2023-01-30T12:14:23;2.80;99.90
11043;DHT22;5574;48.786;10.120;2023-01-30T12:16:58;2.80;99.90
11043;DHT22;5574;48.786;10.120;2023-01-30T12:19:35;2.90;99.90
11043;DHT22;5574;48.786;10.120;2023-01-30T12:22:11;3.00;99.90
11043;DHT22;5574;48.786;10.120;2023-01-30T12:24:45;3.10;99.90
11043;DHT22;5574;48.786;10.120;2023-01-30T12:27:20;3.20;99.90
11043;DHT22;5574;48.786;10.120;2023-01-30T12:29:57;3.30;99.90
11043;DHT22;5574;48.786;10.120;2023-01-30T12:32:27;3.40;99.90
11043;DHT22;5574;48.786;10.120;2023-01-30T12:34:54;3.40;99.90
11043;DHT22;5574;48.786;10.120;2023-01-30T12:37:48;3.40;99.90
11043;DHT22;5574;48.786;10.120;2023-01-30T12:40:26;3.40;99.90
11043;DHT22;5574;48.786;10.120;2023-01-30T12:43:21;3.30;99.90
11043;DHT22;5574;48.786;10.120;2023-01-30T12:45:57;3.30;99.90
11043;DHT22;5574;48.786;10.120;2023-01-30T12:51:33;3.30;99.90
11043;DHT22;5574;48.786;10.120;2023-01-30T12:54:09;3.20;99.90
11043;DHT22;5574;48.786;10.120;2023-01-30T12:56:51;3.30;99.90
11043;DHT22;5574;48.786;10.120;2023-01-30T12:59:25;3.20;99.90
11043;DHT22;5574;48.786;10.120;2023-01-30T13:02:19;3.20;99.90
11043;DHT22;5574;48.786;10.120;2023-01-30T13:05:05;3.20;99.90
11043;DHT22;5574;48.786;10.120;2023-01-30T13:07:48;3.10;99.90
11043;DHT22;5574;48.786;10.120;2023-01-30T13:10:27;3.10;99.90
11043;DHT22;5574;48.786;10.120;2023-01-30T13:13:05;3.10;99.90
11043;DHT22;5574;48.786;10.120;2023-01-30T13:15:43;3.00;99.90
11043;DHT22;5574;48.786;10.120;2023-01-30T13:18:14;3.00;99.90
11043;DHT22;5574;48.786;10.120;2023-01-30T13:20:51;3.00;99.90
11043;DHT22;5574;48.786;10.120;2023-01-30T13:23:21;2.90;99.90
11043;DHT22;5574;48.786;10.120;2023-01-30T13:25:56;2.80;99.90
11043;DHT22;5574;48.786;10.120;2023-01-30T13:28:27;2.90;99.90
11043;DHT22;5574;48.786;10.120;2023-01-30T13:30:59;2.80;99.90
11043;DHT22;5574;48.786;10.120;2023-01-30T13:33:30;2.80;99.90
11043;DHT22;5574;48.786;10.120;2023-01-30T13:36:04;2.70;99.90
11043;DHT22;5574;48.786;10.120;2023-01-30T13:38:34;2.70;99.90
11043;DHT22;5574;48.786;10.120;2023-01-30T13:41:02;2.70;99.90
11043;DHT22;5574;48.786;10.120;2023-01-30T13:43:33;2.60;99.90
11043;DHT22;5574;48.786;10.120;2023-01-30T13:46:06;2.60;99.90
11043;DHT22;5574;48.786;10.120;2023-01-30T13:48:45;2.60;99.90
11043;DHT22;5574;48.786;10.120;2023-01-30T13:51:31;2.60;99.90
11043;DHT22;5574;48.786;10.120;2023-01-30T13:54:05;2.60;99.90
11043;DHT22;5574;48.786;10.120;2023-01-30T13:56:37;2.60;99.90
11043;DHT22;5574;48.786;10.120;2023-01-30T13:59:14;2.60;99.90
11043;DHT22;5574;48.786;10.120;2023-01-30T14:02:18;2.60;99.90
11043;DHT22;5574;48.786;10.120;2023-01-30T14:04:50;2.60;99.90
11043;DHT22;5574;48.786;10.120;2023-01-30T14:07:22;2.50;99.90
11043;DHT22;5574;48.786;10.120;2023-01-30T14:10:00;2.50;99.90
11043;DHT22;5574;48.786;10.120;2023-01-30T14:12:33;2.50;99.90
11043;DHT22;5574;48.786;10.120;2023-01-30T14:15:02;2.50;99.90
11043;DHT22;5574;48.786;10.120;2023-01-30T14:17:30;2.50;99.90
11043;DHT22;5574;48.786;10.120;2023-01-30T14:20:00;2.50;99.90
11043;DHT22;5574;48.786;10.120;2023-01-30T14:22:32;2.50;99.90
11043;DHT22;5574;48.786;10.120;2023-01-30T14:34:46;2.50;99.90
11043;DHT22;5574;48.786;10.120;2023-01-30T14:37:49;2.50;99.90
11043;DHT22;5574;48.786;10.120;2023-01-30T14:40:39;2.40;99.90
11043;DHT22;5574;48.786;10.120;2023-01-30T14:46:37;2.40;99.90
11043;DHT22;5574;48.786;10.120;2023-01-30T14:49:18;2.50;99.90
11043;DHT22;5574;48.786;10.120;2023-01-30T14:51:48;2.50;99.90
11043;DHT22;5574;48.786;10.120;2023-01-30T14:54:20;2.50;99.90
11043;DHT22;5574;48.786;10.120;2023-01-30T14:56:50;2.50;99.90
11043;DHT22;5574;48.786;10.120;2023-01-30T14:59:23;2.50;99.90
11043;DHT22;5574;48.786;10.120;2023-01-30T15:02:00;2.50;99.90
11043;DHT22;5574;48.786;10.120;2023-01-30T15:04:30;2.50;99.90
11043;DHT22;5574;48.786;10.120;2023-01-30T15:07:03;2.50;99.90
11043;DHT22;5574;48.786;10.120;2023-01-30T15:09:32;2.50;99.90
11043;DHT22;5574;48.786;10.120;2023-01-30T15:12:14;2.50;99.90
11043;DHT22;5574;48.786;10.120;2023-01-30T15:14:48;2.60;99.90
11043;DHT22;5574;48.786;10.120;2023-01-30T15:17:24;2.60;99.90
11043;DHT22;5574;48.786;10.120;2023-01-30T15:20:15;2.60;99.90
11043;DHT22;5574;48.786;10.120;2023-01-30T15:23:03;2.60;99.90
11043;DHT22;5574;48.786;10.120;2023-01-30T15:25:45;2.60;99.90
11043;DHT22;5574;48.786;10.120;2023-01-30T15:28:26;2.60;99.90
11043;DHT22;5574;48.786;10.120;2023-01-30T15:31:07;2.70;99.90
11043;DHT22;5574;48.786;10.120;2023-01-30T15:33:42;2.70;99.90
11043;DHT22;5574;48.786;10.120;2023-01-30T15:36:23;2.70;99.90
11043;DHT22;5574;48.786;10.120;2023-01-30T15:39:02;2.70;99.90
11043;DHT22;5574;48.786;10.120;2023-01-30T15:41:31;2.70;99.90
11043;DHT22;5574;48.786;10.120;2023-01-30T15:44:26;2.70;99.90
11043;DHT22;5574;48.786;10.120;2023-01-30T15:47:01;2.70;99.90
11043;DHT22;5574;48.786;10.120;2023-01-30T15:49:50;2.70;99.90
11043;DHT22;5574;48.786;10.120;2023-01-30T15:52:21;2.70;99.90
11043;DHT22;5574;48.786;10.120;2023-01-30T15:54:52;2.70;99.90
11043;DHT22;5574;48.786;10.120;2023-01-30T15:57:23;2.70;99.90
11043;DHT22;5574;48.786;10.120;2023-01-30T15:59:52;2.70;99.90
11043;DHT22;5574;48.786;10.120;2023-01-30T16:02:25;2.70;99.90
11043;DHT22;5574;48.786;10.120;2023-01-30T16:05:13;2.70;99.90
11043;DHT22;5574;48.786;10.120;2023-01-30T16:07:41;2.70;99.90
11043;DHT22;5574;48.786;10.120;2023-01-30T16:10:14;2.70;99.90
11043;DHT22;5574;48.786;10.120;2023-01-30T16:12:41;2.70;99.90
11043;DHT22;5574;48.786;10.120;2023-01-30T16:15:26;2.70;99.90
11043;DHT22;5574;48.786;10.120;2023-01-30T16:17:59;2.70;99.90
11043;DHT22;5574;48.786;10.120;2023-01-30T16:20:27;2.70;99.90
11043;DHT22;5574;48.786;10.120;2023-01-30T16:22:55;2.70;99.90
11043;DHT22;5574;48.786;10.120;2023-01-30T16:25:25;2.70;99.90